Time;durP1;ratioP1;P1;durP2;ratioP2;P2;SDS_P1;SDS_P2;PMS_P1;PMS_P2;Temp;Humidity;BMP_temperature;BMP_pressure;BME280_temperature;BME280_humidity;BME280_pressure;Samples;Min_cycle;Max_cycle;Signal;HPM_P1;HPM_P2
2023/01/24 00:01:06;;;;;;;23.40;12.95;;;0.80;99.90;;;0.18;100.00;99266.97;4960872;28;20161;-70
2023/01/24 00:03:33;;;;;;;21.08;12.35;;;0.90;99.90;;;0.11;100.00;99280.41;4943051;28;20070;-70
2023/01/24 00:06:00;;;;;;;22.63;13.00;;;0.80;99.90;;;0.15;100.00;99267.75;4942411;28;20051;-70
2023/01/24 00:08:28;;;;;;;21.70;12.75;;;0.80;99.90;;;0.03;100.00;99267.47;4963205;28;20109;-70
2023/01/24 00:11:00;;;;;;;22.00;12.68;;;0.80;99.90;;;0.14;100.00;99273.72;4977189;28;20085;-70
2023/01/24 00:13:28;;;;;;;25.02;15.68;;;0.90;99.90;;;0.17;100.00;99273.78;4948359;28;20051;-70
2023/01/24 00:16:25;;;;;;;22.65;13.25;;;0.90;99.90;;;0.08;100.00;99265.88;4962139;28;20137;-70
2023/01/24 00:18:52;;;;;;;18.10;10.98;;;0.80;99.90;;;0.10;100.00;99268.47;4944121;28;20137;-70
2023/01/24 00:21:22;;;;;;;23.52;13.52;;;0.90;99.90;;;0.08;100.00;99267.56;4975632;28;20062;-70
2023/01/24 00:23:52;;;;;;;23.08;12.73;;;0.80;99.90;;;0.09;100.00;99270.19;4945931;28;20067;-70
2023/01/24 00:26:22;;;;;;;22.25;14.02;;;0.90;99.90;;;0.15;100.00;99279.69;4943574;28;20096;-70
2023/01/24 00:28:49;;;;;;;22.40;12.20;;;0.90;99.90;;;0.13;100.00;99278.78;4944334;28;20126;-71
2023/01/24 00:31:17;;;;;;;24.13;12.20;;;0.90;99.90;;;0.17;100.00;99278.88;4962104;28;20082;-70
2023/01/24 00:33:46;;;;;;;23.08;13.23;;;0.90;99.90;;;0.14;100.00;99272.84;4961434;28;20051;-70
2023/01/24 00:36:13;;;;;;;23.95;13.50;;;0.90;99.90;;;0.11;100.00;99270.19;4960723;28;20057;-70
2023/01/24 00:38:40;;;;;;;24.13;14.40;;;0.80;99.90;;;0.20;100.00;99265.34;4959660;28;20397;-70
2023/01/24 00:41:07;;;;;;;24.10;13.93;;;0.90;99.90;;;0.19;100.00;99261.91;4941444;28;20055;-70
2023/01/24 00:43:34;;;;;;;24.48;13.90;;;0.90;99.90;;;0.15;100.00;99254.13;4962230;28;20074;-70
2023/01/24 00:46:06;;;;;;;22.38;13.15;;;0.90;99.90;;;0.12;100.00;99257.47;4974318;28;20148;-70
2023/01/24 00:48:34;;;;;;;21.40;13.57;;;0.90;99.90;;;0.07;100.00;99260.72;4944666;28;20574;-70
2023/01/24 00:51:01;;;;;;;22.27;13.52;;;0.80;99.90;;;0.07;100.00;99260.72;4948134;28;20058;-70
2023/01/24 00:53:28;;;;;;;23.20;14.07;;;0.80;99.90;;;0.17;100.00;99255.03;4943940;28;20425;-70
2023/01/24 00:55:56;;;;;;;24.98;13.23;;;0.90;99.90;;;0.05;100.00;99250.50;4947202;28;20062;-70
2023/01/24 00:58:24;;;;;;;25.80;13.90;;;0.80;99.90;;;0.03;100.00;99252.13;4944531;28;20102;-70
2023/01/24 01:00:55;;;;;;;21.15;12.60;;;0.80;99.90;;;0.09;100.00;99259.97;4944621;28;20054;-70
2023/01/24 01:03:23;;;;;;;28.13;16.10;;;0.80;99.90;;;0.09;100.00;99248.88;4945967;28;20054;-70
2023/01/24 01:06:15;;;;;;;23.30;13.77;;;0.90;99.90;;;0.06;100.00;99256.47;4943470;28;20054;-71
2023/01/24 01:09:00;;;;;;;19.15;12.65;;;0.80;99.90;;;0.14;100.00;99252.44;4964433;28;20050;-70
2023/01/24 01:11:27;;;;;;;21.25;12.13;;;0.80;99.90;;;0.06;100.00;99259.00;4948874;28;20459;-70
2023/01/24 01:13:56;;;;;;;24.33;12.32;;;0.80;99.90;;;0.06;100.00;99248.78;4943982;28;20047;-70
2023/01/24 01:16:23;;;;;;;17.60;11.18;;;0.80;99.90;;;0.11;100.00;99252.31;4960714;28;20046;-70
2023/01/24 01:18:54;;;;;;;20.40;11.85;;;0.90;99.90;;;0.05;100.00;99244.53;4960855;28;20047;-70
2023/01/24 01:21:22;;;;;;;20.33;10.77;;;0.80;99.90;;;0.09;100.00;99247.19;4945175;28;20502;-70
2023/01/24 01:23:49;;;;;;;18.25;10.95;;;0.90;99.90;;;0.20;100.00;99250.00;4961942;28;20048;-70
2023/01/24 01:26:20;;;;;;;19.60;12.15;;;0.90;99.90;;;0.14;100.00;99250.72;4942986;28;20474;-70
2023/01/24 01:28:48;;;;;;;18.73;11.05;;;0.80;99.90;;;0.09;100.00;99241.22;4952955;28;20060;-70
2023/01/24 01:31:16;;;;;;;18.30;10.65;;;0.80;99.90;;;0.11;100.00;99250.63;4948989;28;20058;-70
2023/01/24 01:33:44;;;;;;;18.98;10.85;;;0.90;99.90;;;0.16;100.00;99246.53;4966805;28;20058;-70
2023/01/24 01:36:11;;;;;;;19.27;11.80;;;0.90;99.90;;;0.10;100.00;99240.41;4948800;28;20085;-70
2023/01/24 01:38:39;;;;;;;20.73;12.48;;;0.90;99.90;;;0.13;100.00;99240.47;4964601;28;20062;-70
2023/01/24 01:41:06;;;;;;;19.85;11.20;;;0.90;99.90;;;0.14;100.00;99224.34;4947986;28;20042;-70
2023/01/24 01:43:33;;;;;;;20.02;10.07;;;0.90;99.90;;;0.13;100.00;99230.25;4965143;28;20055;-70
2023/01/24 01:46:24;;;;;;;17.52;10.18;;;0.90;99.90;;;0.10;100.00;99243.81;4964167;28;20042;-70
2023/01/24 01:48:56;;;;;;;18.77;11.18;;;0.90;99.90;;;0.13;100.00;99250.69;4949847;28;20525;-70
2023/01/24 01:51:42;;;;;;;18.93;10.47;;;0.90;99.90;;;0.13;100.00;99261.75;4982620;28;20050;-70
2023/01/24 01:54:19;;;;;;;20.10;11.90;;;0.90;99.90;;;0.12;100.00;99251.53;4947171;28;20318;-70
2023/01/24 01:56:56;;;;;;;20.35;12.07;;;0.90;99.90;;;0.10;100.00;99258.28;4962793;28;20088;-70
2023/01/24 01:59:27;;;;;;;20.67;11.82;;;0.80;99.90;;;0.15;100.00;99256.69;4964096;28;20042;-71
2023/01/24 02:01:59;;;;;;;22.25;13.02;;;0.90;99.90;;;0.13;100.00;99266.84;4965047;28;20070;-70
2023/01/24 02:04:33;;;;;;;16.48;9.73;;;0.90;99.90;;;0.14;100.00;99260.94;4962389;28;20097;-70
2023/01/24 02:07:40;;;;;;;21.08;11.10;;;0.90;99.90;;;0.12;100.00;99269.38;4963809;28;20130;-70
2023/01/24 02:10:09;;;;;;;21.60;11.90;;;0.80;99.90;;;0.10;100.00;99271.91;4951429;28;20050;-70
2023/01/24 02:12:43;;;;;;;18.80;11.18;;;0.90;99.90;;;0.11;100.00;99265.94;4944375;28;20054;-70
2023/01/24 02:18:03;;;;;;;19.25;11.13;;;0.80;99.90;;;0.07;100.00;99259.06;4952347;28;20386;-70
2023/01/24 02:20:43;;;;;;;17.55;9.63;;;0.80;99.90;;;0.09;100.00;99265.06;4947470;28;20058;-70
2023/01/24 02:23:18;;;;;;;22.00;12.00;;;0.90;99.90;;;0.16;100.00;99253.31;4980267;28;20044;-70
2023/01/24 02:26:08;;;;;;;18.38;11.13;;;0.90;99.90;;;0.16;100.00;99272.06;4960950;28;20520;-70
2023/01/24 02:28:36;;;;;;;18.02;11.15;;;0.90;99.90;;;0.08;100.00;99270.13;4962390;28;20054;-70
2023/01/24 02:31:04;;;;;;;22.77;12.40;;;0.80;99.90;;;0.10;100.00;99274.44;4951187;28;20436;-70
2023/01/24 02:33:33;;;;;;;18.98;11.75;;;0.90;99.90;;;0.13;100.00;99278.78;4959670;28;20058;-70
2023/01/24 02:36:26;;;;;;;18.50;10.80;;;0.90;99.90;;;0.10;100.00;99286.34;4948735;28;20137;-70
2023/01/24 02:39:12;;;;;;;21.90;10.98;;;0.80;99.90;;;0.06;100.00;99284.53;4947094;28;20057;-70
2023/01/24 02:41:55;;;;;;;19.55;9.55;;;0.80;99.90;;;0.11;100.00;99280.41;4976404;28;20169;-70
2023/01/24 02:44:48;;;;;;;;;;;0.90;99.90;;;0.08;100.00;99300.78;4963436;28;20062;-70
2023/01/24 02:47:16;;;;;;;18.85;10.55;;;0.90;99.90;;;0.08;100.00;99301.63;4960404;28;20020;-70
2023/01/24 02:49:43;;;;;;;21.80;11.88;;;0.80;99.90;;;-0.02;100.00;99294.56;4945389;28;20145;-70
2023/01/24 02:54:56;;;;;;;19.15;11.85;;;0.80;99.90;;;0.03;100.00;99295.53;4964355;28;20050;-70
2023/01/24 03:00:11;;;;;;;21.52;11.55;;;0.80;99.90;;;0.03;100.00;99300.66;4963524;28;20047;-70
2023/01/24 03:02:38;;;;;;;22.67;11.40;;;0.80;99.90;;;0.03;100.00;99292.13;4950546;28;20047;-70
2023/01/24 03:05:05;;;;;;;20.45;12.85;;;0.80;99.90;;;0.03;100.00;99304.91;4962949;28;20039;-70
2023/01/24 03:07:41;;;;;;;18.92;11.25;;;0.70;99.90;;;0.04;100.00;99301.50;4963316;28;20429;-70
2023/01/24 03:10:17;;;;;;;18.35;11.98;;;0.80;99.90;;;0.01;100.00;99304.84;4948594;28;20542;-70
2023/01/24 03:34:51;;;;;;;21.52;11.50;;;0.70;99.90;;;-0.02;100.00;99290.31;4948639;28;20065;-70
2023/01/24 03:39:53;;;;;;;23.38;13.68;;;0.80;99.90;;;0.01;100.00;99292.06;4935654;28;20055;-70
2023/01/24 03:40:13;;;;;;;25.52;14.18;;;0.70;99.90;;;-0.04;100.00;99297.06;4951622;28;20078;-70
2023/01/24 03:42:48;;;;;;;22.10;14.15;;;0.70;99.90;;;-0.07;100.00;99294.44;4949532;28;20403;-70
2023/01/24 03:45:24;;;;;;;20.25;12.52;;;0.70;99.90;;;-0.02;100.00;99299.66;4962077;28;20053;-70
2023/01/24 03:47:55;;;;;;;25.85;14.07;;;0.80;99.90;;;-0.03;100.00;99295.38;4946698;28;20054;-70
2023/01/24 03:53:29;;;;;;;25.73;14.02;;;0.70;99.90;;;-0.02;100.00;99297.09;4961446;28;20059;-70
2023/01/24 03:56:00;;;;;;;24.15;13.38;;;0.70;99.90;;;-0.03;100.00;99298.78;4948030;28;20063;-71
2023/01/24 03:58:30;;;;;;;23.88;14.35;;;0.70;99.90;;;-0.05;100.00;99302.97;4958907;28;20533;-70
2023/01/24 04:00:57;;;;;;;23.40;14.30;;;0.70;99.90;;;-0.09;100.00;99301.19;4976082;28;20164;-70
2023/01/24 04:03:25;;;;;;;27.85;15.23;;;0.70;99.90;;;-0.10;100.00;99303.69;4962019;28;20054;-70
2023/01/24 04:05:51;;;;;;;23.55;13.38;;;0.60;99.90;;;-0.05;100.00;99309.75;4934902;28;20051;-70
2023/01/24 04:08:19;;;;;;;24.42;13.88;;;0.70;99.90;;;-0.08;100.00;99307.16;4962292;28;20061;-70
2023/01/24 04:10:46;;;;;;;24.33;14.27;;;0.70;99.90;;;-0.05;100.00;99302.97;4947900;28;20153;-70
2023/01/24 04:13:13;;;;;;;23.48;12.90;;;0.70;99.90;;;-0.08;100.00;99308.00;4933199;28;20074;-70
2023/01/24 04:15:40;;;;;;;24.88;14.75;;;0.70;99.90;;;-0.07;100.00;99294.44;4974574;28;20501;-70
2023/01/24 04:18:07;;;;;;;22.17;13.23;;;0.70;99.90;;;-0.08;100.00;99302.03;4959355;28;20520;-71
2023/01/24 04:20:36;;;;;;;23.92;14.27;;;0.70;99.90;;;-0.08;100.00;99299.50;4949087;28;20050;-70
2023/01/24 04:23:07;;;;;;;26.58;16.40;;;0.70;99.90;;;-0.09;100.00;99295.19;4961596;28;20131;-70
2023/01/24 04:25:34;;;;;;;26.63;15.23;;;0.60;99.90;;;-0.10;100.00;99298.56;4946859;28;20051;-70
2023/01/24 04:28:02;;;;;;;29.55;16.73;;;0.70;99.90;;;-0.19;100.00;99303.44;4948410;28;20523;-70
2023/01/24 04:30:29;;;;;;;26.65;14.88;;;0.60;99.90;;;-0.08;100.00;99299.50;4975347;28;20082;-70
2023/01/24 04:32:56;;;;;;;24.70;13.80;;;0.70;99.90;;;-0.13;100.00;99296.81;4946654;28;20054;-70
2023/01/24 04:35:27;;;;;;;22.70;14.27;;;0.60;99.90;;;-0.15;100.00;99302.69;4946033;28;20061;-70
2023/01/24 04:38:01;;;;;;;24.45;14.02;;;0.60;99.90;;;-0.07;100.00;99285.88;4942339;28;20090;-70
2023/01/24 04:40:28;;;;;;;28.42;15.23;;;0.60;99.90;;;-0.18;100.00;99298.38;4945048;28;20267;-70
2023/01/24 04:42:57;;;;;;;25.00;14.07;;;0.60;99.90;;;-0.11;100.00;99302.81;4958155;28;20062;-70
2023/01/24 04:45:25;;;;;;;28.60;15.95;;;0.60;99.90;;;-0.12;100.00;99303.63;4959994;28;20155;-70
2023/01/24 04:47:53;;;;;;;27.58;15.32;;;0.60;99.90;;;-0.13;100.00;99301.91;4956726;28;20154;-70
2023/01/24 04:50:21;;;;;;;22.98;13.40;;;0.60;99.90;;;-0.08;100.00;99297.78;4972545;28;20081;-70
2023/01/24 04:52:48;;;;;;;28.98;14.45;;;0.60;99.90;;;-0.16;100.00;99296.72;4943074;28;20501;-70
2023/01/24 04:55:15;;;;;;;26.30;15.77;;;0.60;99.90;;;-0.13;100.00;99301.06;4944144;28;20059;-70
2023/01/24 04:57:43;;;;;;;26.38;14.55;;;0.60;99.90;;;-0.22;100.00;99301.66;4945841;28;20062;-70
2023/01/24 05:00:10;;;;;;;26.25;14.57;;;0.50;99.90;;;-0.15;100.00;99303.56;4974721;28;20051;-70
2023/01/24 05:02:37;;;;;;;24.63;15.48;;;0.60;99.90;;;-0.20;100.00;99312.78;4960226;28;20043;-69
2023/01/24 05:05:06;;;;;;;25.63;14.63;;;0.50;99.90;;;-0.10;100.00;99314.75;4934085;28;20499;-70
2023/01/24 05:07:35;;;;;;;24.27;13.75;;;0.60;99.90;;;-0.13;100.00;99319.78;4960873;28;20057;-70
2023/01/24 05:10:03;;;;;;;24.65;14.18;;;0.60;99.90;;;-0.10;100.00;99322.41;4963408;28;20055;-70
2023/01/24 05:12:33;;;;;;;24.52;14.65;;;0.60;99.90;;;-0.06;100.00;99328.47;4980436;28;20062;-70
2023/01/24 05:15:00;;;;;;;22.58;12.25;;;0.60;99.90;;;-0.12;100.00;99323.19;4960541;28;20047;-70
2023/01/24 05:17:27;;;;;;;29.88;15.43;;;0.60;99.90;;;-0.09;100.00;99333.47;4948340;28;20043;-70
2023/01/24 05:19:54;;;;;;;20.38;11.35;;;0.60;99.90;;;-0.09;100.00;99325.81;4963103;28;20053;-70
2023/01/24 05:22:22;;;;;;;20.25;12.20;;;0.60;99.90;;;-0.05;100.00;99323.38;4966238;28;20047;-70
2023/01/24 05:24:48;;;;;;;25.23;13.82;;;0.70;99.90;;;-0.02;100.00;99335.41;4948117;28;20046;-70
2023/01/24 05:27:15;;;;;;;25.55;14.18;;;0.70;99.90;;;-0.07;100.00;99331.84;4962519;28;20054;-70
2023/01/24 05:29:42;;;;;;;20.08;12.57;;;0.70;99.90;;;-0.13;100.00;99337.66;4961351;28;20070;-70
2023/01/24 05:32:11;;;;;;;24.80;14.48;;;0.70;99.90;;;-0.13;100.00;99335.09;4962088;28;20108;-70
2023/01/24 05:34:38;;;;;;;21.42;12.70;;;0.60;99.90;;;0.01;100.00;99332.91;4961756;28;20059;-70
2023/01/24 05:37:04;;;;;;;24.40;13.52;;;0.70;99.90;;;-0.12;100.00;99335.94;4963974;28;20054;-70
2023/01/24 05:39:32;;;;;;;28.17;15.65;;;0.60;99.90;;;-0.22;100.00;99333.13;4962913;28;20053;-70
2023/01/24 05:41:59;;;;;;;27.05;14.82;;;0.60;99.90;;;-0.16;100.00;99337.56;4966817;28;20050;-70
2023/01/24 05:44:26;;;;;;;22.90;13.80;;;0.60;99.90;;;-0.12;100.00;99347.03;4962208;28;20051;-69
2023/01/24 05:46:53;;;;;;;23.27;14.23;;;0.70;99.90;;;-0.15;100.00;99340.97;4964761;28;20051;-70
2023/01/24 05:49:20;;;;;;;26.65;14.52;;;0.60;99.90;;;-0.15;100.00;99351.19;4964665;28;20062;-70
2023/01/24 05:51:47;;;;;;;26.92;15.07;;;0.60;99.90;;;-0.17;100.00;99346.03;4962017;28;20780;-70
2023/01/24 05:54:14;;;;;;;24.15;14.35;;;0.60;99.90;;;-0.16;100.00;99346.88;4961137;28;20047;-70
2023/01/24 05:56:42;;;;;;;21.30;13.63;;;0.50;99.90;;;-0.12;100.00;99344.47;4963744;28;20054;-70
2023/01/24 05:59:10;;;;;;;22.45;14.02;;;0.60;99.90;;;-0.15;100.00;99351.19;4978429;28;20066;-70
2023/01/24 06:01:37;;;;;;;22.88;13.25;;;0.60;99.90;;;-0.12;100.00;99351.25;4963725;28;20049;-70
2023/01/24 06:04:04;;;;;;;20.85;12.90;;;0.60;99.90;;;-0.15;100.00;99357.16;4959825;28;20043;-70
2023/01/24 06:06:32;;;;;;;25.17;14.55;;;0.60;99.90;;;-0.18;100.00;99357.06;4945827;28;20498;-70
2023/01/24 06:08:59;;;;;;;22.88;13.55;;;0.60;99.90;;;-0.14;100.00;99369.06;4963340;28;20068;-70
2023/01/24 06:11:28;;;;;;;21.13;14.00;;;0.60;99.90;;;-0.23;100.00;99362.03;4963474;28;20051;-70
2023/01/24 06:13:55;;;;;;;22.33;12.13;;;0.50;99.90;;;-0.18;100.00;99377.50;4949474;28;20042;-70
2023/01/24 06:16:25;;;;;;;24.88;13.73;;;0.60;99.90;;;-0.15;100.00;99369.91;4978246;28;20057;-70
2023/01/24 06:18:54;;;;;;;22.15;13.50;;;0.60;99.90;;;-0.16;100.00;99367.31;4978031;28;20153;-70
2023/01/24 06:21:49;;;;;;;22.70;13.32;;;0.60;99.90;;;-0.08;100.00;99376.91;4947763;28;20512;-70
2023/01/24 06:24:23;;;;;;;26.38;13.57;;;0.60;99.90;;;-0.15;100.00;99380.13;4963293;28;20046;-70
2023/01/24 06:26:51;;;;;;;24.40;13.35;;;0.60;99.90;;;-0.22;100.00;99376.53;4951319;28;20051;-70
2023/01/24 06:29:22;;;;;;;23.48;10.88;;;0.50;99.90;;;-0.14;100.00;99381.84;4963047;28;20093;-70
2023/01/24 06:32:40;;;;;;;18.60;12.40;;;0.60;99.90;;;-0.13;100.00;99385.28;4944631;28;20573;-70
2023/01/24 06:35:33;;;;;;;22.33;11.95;;;0.60;99.90;;;-0.14;100.00;99391.19;4950862;28;20066;-70
2023/01/24 06:38:00;;;;;;;21.02;13.07;;;0.60;99.90;;;-0.10;100.00;99393.88;4950071;28;20051;-70
2023/01/24 06:40:28;;;;;;;23.23;12.40;;;0.60;99.90;;;-0.13;100.00;99388.69;4947094;28;20043;-70
2023/01/24 06:42:55;;;;;;;24.23;14.40;;;0.60;99.90;;;-0.25;100.00;99389.19;4979157;28;20050;-70
2023/01/24 06:45:23;;;;;;;24.38;15.30;;;0.50;99.90;;;-0.28;100.00;99386.53;4964683;28;20039;-70
2023/01/24 06:47:50;;;;;;;27.67;16.35;;;0.50;99.90;;;-0.29;100.00;99401.81;4964823;28;20061;-70
2023/01/24 06:50:21;;;;;;;25.30;14.10;;;0.50;99.90;;;-0.19;100.00;99411.47;4963705;28;20063;-70
2023/01/24 06:52:49;;;;;;;28.30;15.23;;;0.60;99.90;;;-0.28;100.00;99412.06;4950783;28;20054;-70
2023/01/24 06:55:16;;;;;;;28.80;14.95;;;0.50;99.90;;;-0.24;100.00;99411.34;4945231;28;20050;-70
2023/01/24 06:57:46;;;;;;;25.70;14.20;;;0.50;99.90;;;-0.13;100.00;99413.34;4948265;28;20066;-70
2023/01/24 07:00:14;;;;;;;27.92;14.27;;;0.60;99.90;;;-0.11;100.00;99410.03;4959701;28;20077;-70
2023/01/24 07:02:41;;;;;;;27.15;15.63;;;0.60;99.90;;;-0.23;100.00;99413.09;4946070;28;20474;-70
2023/01/24 07:05:09;;;;;;;26.70;14.60;;;0.50;99.90;;;-0.19;100.00;99416.56;4972950;28;20087;-70
2023/01/24 07:07:36;;;;;;;28.15;16.13;;;0.60;99.90;;;-0.18;100.00;99408.13;4964353;28;20071;-70
2023/01/24 07:10:04;;;;;;;36.67;17.80;;;0.60;99.90;;;-0.22;100.00;99421.59;4957862;28;20050;-70
2023/01/24 07:12:31;;;;;;;26.10;14.13;;;0.50;99.90;;;-0.26;100.00;99417.22;4946683;28;20043;-70
2023/01/24 07:14:58;;;;;;;29.65;15.77;;;0.50;99.90;;;-0.27;100.00;99416.34;4943824;28;20466;-70
2023/01/24 07:17:25;;;;;;;26.30;14.13;;;0.50;99.90;;;-0.18;100.00;99425.09;4963651;28;20059;-70
2023/01/24 07:19:53;;;;;;;28.98;16.67;;;0.50;99.90;;;-0.19;100.00;99423.38;4959148;28;20051;-70
2023/01/24 07:22:20;;;;;;;26.75;16.05;;;0.50;99.90;;;-0.24;100.00;99423.22;4934210;28;20070;-71
2023/01/24 07:24:49;;;;;;;22.98;12.52;;;0.50;99.90;;;-0.11;100.00;99427.03;4960033;28;20054;-70
2023/01/24 07:27:16;;;;;;;31.63;15.55;;;0.60;99.90;;;-0.22;100.00;99434.34;4960357;28;20167;-70
2023/01/24 07:29:43;;;;;;;34.30;17.50;;;0.50;99.90;;;-0.21;100.00;99433.53;4974391;28;20051;-70
2023/01/24 07:32:13;;;;;;;30.20;15.52;;;0.50;99.90;;;-0.26;100.00;99437.63;4944054;28;20058;-70
2023/01/24 07:34:40;;;;;;;33.47;16.15;;;0.50;99.90;;;-0.19;100.00;99444.66;4958853;28;20055;-70
2023/01/24 07:37:08;;;;;;;27.45;15.60;;;0.50;99.90;;;-0.29;100.00;99442.66;4949636;28;20047;-70
2023/01/24 07:39:35;;;;;;;27.08;15.68;;;0.50;99.90;;;-0.27;100.00;99444.44;4957587;28;20261;-70
2023/01/24 07:42:02;;;;;;;30.02;16.73;;;0.50;99.90;;;-0.19;100.00;99449.75;4962970;28;20047;-70
2023/01/24 07:44:29;;;;;;;30.27;16.35;;;0.60;99.90;;;-0.20;100.00;99450.59;4962001;28;20051;-70
2023/01/24 07:46:56;;;;;;;26.35;14.32;;;0.60;99.90;;;-0.10;100.00;99451.72;4964567;28;20903;-70
2023/01/24 07:49:23;;;;;;;28.08;16.30;;;0.60;99.90;;;-0.23;100.00;99448.81;4961520;28;20470;-70
2023/01/24 07:51:51;;;;;;;33.22;17.30;;;0.60;99.90;;;-0.20;100.00;99444.63;4927200;28;20433;-70
2023/01/24 07:54:19;;;;;;;26.90;14.63;;;0.60;99.90;;;-0.20;100.00;99453.13;4944571;28;20062;-70
2023/01/24 07:56:47;;;;;;;31.27;17.65;;;0.60;99.90;;;-0.24;100.00;99449.63;4973461;28;20058;-70
2023/01/24 07:59:14;;;;;;;27.48;15.15;;;0.60;99.90;;;-0.12;100.00;99455.91;4972488;28;20938;-70
2023/01/24 08:01:41;;;;;;;27.67;16.27;;;0.60;99.90;;;-0.13;100.00;99459.31;4960921;28;20121;-70
2023/01/24 08:04:09;;;;;;;28.88;16.88;;;0.70;99.90;;;-0.15;100.00;99461.78;4941086;28;20095;-70
2023/01/24 08:06:38;;;;;;;27.63;13.70;;;0.60;99.90;;;-0.03;100.00;99454.50;4941108;28;20141;-70
2023/01/24 08:09:05;;;;;;;27.17;15.60;;;0.70;99.90;;;-0.05;100.00;99452.72;4944826;28;20059;-71
2023/01/24 08:11:32;;;;;;;27.50;15.02;;;0.70;99.90;;;-0.04;100.00;99460.44;4961064;28;20082;-71
2023/01/24 08:14:00;;;;;;;28.95;16.40;;;0.70;99.90;;;-0.03;100.00;99464.69;4946538;28;20150;-71
2023/01/24 08:16:27;;;;;;;26.27;15.23;;;0.70;99.90;;;0.12;100.00;99466.00;4962463;28;20568;-71
2023/01/24 08:18:54;;;;;;;27.58;16.02;;;0.80;99.90;;;-0.05;100.00;99465.47;4974479;28;20081;-70
2023/01/24 08:21:21;;;;;;;29.02;15.13;;;0.70;99.90;;;0.02;100.00;99464.84;4945529;28;20047;-70
2023/01/24 08:23:48;;;;;;;25.95;14.57;;;0.80;99.90;;;0.02;100.00;99467.41;4960232;28;20055;-70
2023/01/24 08:26:15;;;;;;;27.27;16.00;;;0.80;99.90;;;-0.04;100.00;99468.09;4959401;28;20168;-70
2023/01/24 08:28:42;;;;;;;28.45;16.80;;;0.80;99.90;;;-0.01;100.00;99470.72;4961589;28;20055;-71
2023/01/24 08:31:09;;;;;;;32.38;18.17;;;0.80;99.90;;;0.08;100.00;99479.50;4929477;28;20051;-70
2023/01/24 08:33:37;;;;;;;25.00;15.13;;;0.80;99.90;;;0.03;100.00;99481.06;4961681;28;20528;-70
2023/01/24 08:36:05;;;;;;;26.48;15.93;;;0.80;99.90;;;0.07;100.00;99477.75;4946036;28;20390;-70
2023/01/24 08:38:33;;;;;;;30.27;17.85;;;0.90;99.90;;;0.05;100.00;99477.72;4947821;28;20046;-70
2023/01/24 08:41:04;;;;;;;28.02;18.35;;;0.90;99.90;;;0.18;100.00;99474.72;4948343;28;20296;-70
2023/01/24 08:43:34;;;;;;;30.73;17.58;;;0.90;99.90;;;0.13;100.00;99476.25;4955679;28;20055;-70
2023/01/24 08:46:02;;;;;;;30.60;17.38;;;0.90;99.90;;;0.11;100.00;99479.56;4941888;28;20421;-70
2023/01/24 08:48:30;;;;;;;27.90;17.30;;;0.90;99.90;;;0.17;100.00;99483.19;4963913;28;20153;-70
2023/01/24 08:50:57;;;;;;;23.55;14.98;;;1.00;99.90;;;0.13;100.00;99480.50;4959369;28;20222;-70
2023/01/24 08:53:24;;;;;;;27.90;16.77;;;1.00;99.90;;;0.11;100.00;99487.22;4962282;28;20058;-70
2023/01/24 08:55:51;;;;;;;33.88;19.00;;;0.90;99.90;;;0.15;100.00;99478.84;4959547;28;20524;-70
2023/01/24 08:58:20;;;;;;;29.90;16.17;;;0.90;99.90;;;0.08;100.00;99480.34;4956637;28;20078;-70
2023/01/24 09:00:47;;;;;;;29.98;19.17;;;0.90;99.90;;;0.22;100.00;99492.66;4945950;28;20413;-70
2023/01/24 09:03:17;;;;;;;29.55;17.20;;;1.00;99.90;;;0.07;100.00;99477.75;4962491;28;20054;-70
2023/01/24 09:05:45;;;;;;;29.77;17.65;;;0.90;99.90;;;0.12;100.00;99486.44;4944054;28;20066;-70
2023/01/24 09:08:12;;;;;;;26.13;15.13;;;0.90;99.90;;;0.24;100.00;99491.88;4960068;28;20062;-70
2023/01/24 09:10:39;;;;;;;26.80;16.00;;;1.10;99.90;;;0.23;100.00;99494.38;4960601;28;20558;-70
2023/01/24 09:13:07;;;;;;;27.90;15.60;;;1.10;99.90;;;0.18;100.00;99492.59;4970700;28;20067;-70
2023/01/24 09:15:34;;;;;;;32.33;16.02;;;1.10;99.90;;;0.23;100.00;99486.72;4957037;28;20130;-70
2023/01/24 09:18:02;;;;;;;28.25;15.88;;;1.10;99.90;;;0.21;100.00;99489.25;4958303;28;20082;-70
2023/01/24 09:20:29;;;;;;;27.20;15.45;;;1.10;99.90;;;0.14;100.00;99484.78;4941648;28;20051;-70
2023/01/24 09:22:57;;;;;;;27.50;16.23;;;1.10;99.90;;;0.19;100.00;99489.19;4933310;28;20498;-70
2023/01/24 09:25:24;;;;;;;28.17;16.10;;;1.00;99.90;;;0.28;100.00;99497.97;4956451;28;20534;-70
2023/01/24 09:27:55;;;;;;;26.95;15.02;;;1.10;99.90;;;0.34;100.00;99501.56;4942654;28;20536;-70
2023/01/24 09:30:23;;;;;;;34.42;16.88;;;1.20;99.90;;;0.25;100.00;99497.84;4932674;28;20057;-70
2023/01/24 09:32:51;;;;;;;29.55;16.45;;;1.10;99.90;;;0.22;100.00;99496.09;4956391;28;20057;-70
2023/01/24 09:35:18;;;;;;;26.83;15.25;;;1.10;99.90;;;0.34;100.00;99504.13;4957433;28;20058;-70
2023/01/24 09:37:45;;;;;;;27.15;15.60;;;1.10;99.90;;;0.48;100.00;99516.41;4973991;28;20246;-70
2023/01/24 09:40:42;;;;;;;27.08;15.68;;;1.30;99.90;;;0.37;100.00;99501.66;4955568;28;20758;-70
2023/01/24 09:43:42;;;;;;;27.05;15.82;;;1.20;99.90;;;0.38;100.00;99493.16;4973838;28;20520;-71
2023/01/24 09:46:52;;;;;;;27.45;16.25;;;1.30;99.90;;;0.52;100.00;99498.66;4941417;28;20050;-70
2023/01/24 09:49:34;;;;;;;27.17;16.65;;;1.30;99.90;;;0.33;100.00;99514.28;4961211;28;20104;-71
2023/01/24 09:52:05;;;;;;;26.75;16.48;;;1.20;99.90;;;0.25;100.00;99497.84;4935488;28;20608;-71
2023/01/24 09:54:45;;;;;;;30.35;16.38;;;1.10;99.90;;;0.39;100.00;99499.16;4946652;28;20054;-71
2023/01/24 09:57:45;;;;;;;31.73;17.90;;;1.20;99.90;;;0.51;100.00;99496.06;4965074;28;20058;-70
2023/01/24 10:00:24;;;;;;;30.52;18.52;;;1.30;99.90;;;0.37;100.00;99499.09;4963680;28;20063;-71
2023/01/24 10:02:54;;;;;;;24.40;13.85;;;1.20;99.90;;;0.37;100.00;99498.22;4944758;28;20137;-72
2023/01/24 10:05:31;;;;;;;29.73;16.42;;;1.30;99.90;;;0.33;100.00;99501.50;4933882;28;20590;-70
2023/01/24 10:08:25;;;;;;;27.80;17.08;;;1.20;99.90;;;0.41;100.00;99506.03;4962980;28;20047;-71
2023/01/24 10:11:17;;;;;;;29.80;18.85;;;1.20;99.90;;;0.39;100.00;99492.34;4964646;28;20072;-70
2023/01/24 10:14:22;;;;;;;29.52;17.35;;;1.30;99.90;;;0.48;100.00;99501.06;4945732;28;20050;-70
2023/01/24 10:17:25;;;;;;;23.33;14.32;;;1.30;99.90;;;0.63;100.00;99507.47;4961077;28;20117;-70
2023/01/24 10:20:14;;;;;;;30.35;15.48;;;1.50;99.90;;;0.45;100.00;99495.88;4954120;28;20058;-70
2023/01/24 10:23:09;;;;;;;28.50;16.27;;;1.30;99.90;;;0.53;100.00;99496.97;4946442;28;20053;-70
2023/01/24 10:25:58;;;;;;;29.83;16.17;;;1.40;99.90;;;0.48;100.00;99493.41;4963886;28;20062;-70
2023/01/24 10:28:38;;;;;;;25.40;15.25;;;1.40;99.90;;;0.70;100.00;99500.84;4961855;28;20489;-71
2023/01/24 10:31:14;;;;;;;28.83;16.20;;;1.50;99.90;;;0.73;100.00;99495.84;4976895;28;20142;-71
2023/01/24 10:33:52;;;;;;;27.08;14.98;;;1.60;99.90;;;0.75;100.00;99499.31;4947966;28;20143;-70
2023/01/24 10:36:54;;;;;;;29.98;16.17;;;1.60;99.90;;;0.71;100.00;99497.50;4946109;28;20058;-70
2023/01/24 10:39:21;;;;;;;23.58;14.10;;;1.60;99.90;;;0.75;100.00;99494.19;4960255;28;20047;-71
2023/01/24 10:41:48;;;;;;;25.77;13.88;;;1.60;99.90;;;0.74;100.00;99495.00;4963432;28;20047;-71
2023/01/24 10:44:28;;;;;;;25.30;15.57;;;1.60;99.90;;;0.69;100.00;99491.47;4963292;28;20054;-70
2023/01/24 10:47:10;;;;;;;26.05;14.75;;;1.50;99.90;;;0.75;100.00;99493.31;4962585;28;20057;-70
2023/01/24 10:49:50;;;;;;;46.53;27.60;;;1.60;99.90;;;0.79;100.00;99487.47;4963755;28;20148;-71
2023/01/24 10:52:23;;;;;;;30.70;16.52;;;1.70;99.90;;;0.59;100.00;99490.34;4964497;28;20074;-71
2023/01/24 10:54:56;;;;;;;157.17;84.37;;;1.50;99.90;;;0.77;100.00;99494.22;4962523;28;20050;-70
2023/01/24 10:57:43;;;;;;;35.50;20.30;;;1.70;99.90;;;0.74;100.00;99491.59;4946914;28;20832;-71
2023/01/24 11:00:36;;;;;;;36.80;20.58;;;1.60;99.90;;;0.58;100.00;99485.19;4961417;28;20153;-70
2023/01/24 11:03:18;;;;;;;47.17;28.70;;;1.50;99.90;;;0.56;100.00;99489.41;4956530;28;20049;-70